Time;durP1;ratioP1;P1;durP2;ratioP2;P2;SDS_P1;SDS_P2;PMS_P1;PMS_P2;Temp;Humidity;BMP_temperature;BMP_pressure;BME280_temperature;BME280_humidity;BME280_pressure;Samples;Min_cycle;Max_cycle;Signal;HPM_P1;HPM_P2
2024/02/01 00:00:56;;;;;;;9.88;6.43;;;8.60;99.90;;;;;;5058228;28;20078;-83
2024/02/01 00:03:22;;;;;;;9.88;6.72;;;8.60;99.90;;;;;;5058368;28;20063;-83
2024/02/01 00:05:48;;;;;;;8.48;6.50;;;8.60;99.90;;;;;;5058224;28;20444;-83
2024/02/01 00:08:13;;;;;;;10.43;6.80;;;8.70;99.90;;;;;;5076018;28;20033;-83
2024/02/01 00:10:39;;;;;;;10.50;7.28;;;8.70;99.90;;;;;;5075749;28;20035;-83
2024/02/01 00:13:06;;;;;;;10.40;6.78;;;8.70;99.90;;;;;;5058099;28;20032;-83
2024/02/01 00:15:31;;;;;;;12.48;7.70;;;8.70;99.90;;;;;;5076084;28;20028;-83
2024/02/01 00:17:57;;;;;;;10.48;7.25;;;8.70;99.90;;;;;;5061661;28;20028;-83
2024/02/01 00:20:25;;;;;;;11.93;7.45;;;8.70;99.90;;;;;;5061190;28;20078;-83
2024/02/01 00:22:51;;;;;;;9.80;7.13;;;8.70;99.90;;;;;;5095929;28;20020;-83
2024/02/01 00:25:16;;;;;;;9.70;7.22;;;8.70;99.90;;;;;;5096059;28;20039;-83
2024/02/01 00:27:42;;;;;;;9.65;7.07;;;8.70;99.90;;;;;;5061271;28;20414;-82
2024/02/01 00:30:08;;;;;;;13.30;8.32;;;8.70;99.90;;;;;;5061402;28;20032;-82
2024/02/01 00:32:33;;;;;;;10.57;8.00;;;8.70;99.90;;;;;;5096277;28;20028;-83
2024/02/01 00:34:59;;;;;;;11.88;8.32;;;8.70;99.90;;;;;;5077835;28;20024;-84
2024/02/01 00:37:25;;;;;;;12.55;7.80;;;8.80;99.90;;;;;;5061671;28;20024;-84
2024/02/01 00:39:50;;;;;;;12.73;8.10;;;8.80;99.90;;;;;;5078979;28;20051;-83
2024/02/01 00:42:16;;;;;;;13.18;8.40;;;8.80;99.90;;;;;;5048481;28;20024;-83
2024/02/01 00:44:42;;;;;;;10.60;8.00;;;8.80;99.90;;;;;;5085468;28;20012;-82
2024/02/01 00:47:07;;;;;;;10.95;8.48;;;8.80;99.90;;;;;;5119151;28;20035;-83
2024/02/01 00:49:34;;;;;;;11.48;9.13;;;8.80;99.90;;;;;;5100557;28;20027;-82
2024/02/01 00:52:00;;;;;;;11.38;8.48;;;8.80;99.90;;;;;;5089941;28;20028;-83
2024/02/01 00:54:26;;;;;;;10.05;8.68;;;8.90;99.90;;;;;;5077353;28;20395;-83
2024/02/01 00:56:51;;;;;;;12.55;8.15;;;8.90;99.90;;;;;;5044368;28;20111;-83
2024/02/01 00:59:17;;;;;;;12.35;8.38;;;8.90;99.90;;;;;;5095029;28;20067;-83
2024/02/01 01:01:43;;;;;;;10.27;8.15;;;8.90;99.90;;;;;;5044107;28;20028;-83
2024/02/01 01:04:09;;;;;;;12.00;8.43;;;8.90;99.90;;;;;;5077000;28;20082;-83
2024/02/01 01:06:34;;;;;;;9.60;8.02;;;8.90;99.90;;;;;;5060201;28;20032;-83
2024/02/01 01:09:00;;;;;;;12.27;8.15;;;8.90;99.90;;;;;;5077170;28;20116;-83
2024/02/01 01:11:26;;;;;;;10.02;8.43;;;8.90;99.90;;;;;;5077286;28;20107;-84
2024/02/01 01:13:53;;;;;;;13.80;8.73;;;8.90;99.90;;;;;;5095619;28;20126;-84
2024/02/01 01:16:19;;;;;;;16.15;9.48;;;8.90;99.90;;;;;;5059921;28;20074;-84
2024/02/01 01:18:44;;;;;;;11.77;8.18;;;8.90;99.90;;;;;;5076274;28;20483;-84
2024/02/01 01:21:12;;;;;;;10.25;8.68;;;8.90;99.90;;;;;;5076715;28;20043;-84
2024/02/01 01:23:37;;;;;;;10.52;9.05;;;9.00;99.90;;;;;;5076515;28;20054;-84
2024/02/01 01:26:03;;;;;;;9.65;7.68;;;9.00;99.90;;;;;;5076727;28;20032;-84
2024/02/01 01:28:29;;;;;;;12.65;8.60;;;9.00;99.90;;;;;;5043068;28;20434;-84
2024/02/01 01:30:55;;;;;;;12.65;8.70;;;9.10;99.90;;;;;;5043443;28;20028;-84
2024/02/01 01:33:21;;;;;;;9.80;7.60;;;9.00;99.90;;;;;;5076729;28;20107;-84
2024/02/01 01:35:46;;;;;;;10.32;7.60;;;9.10;99.90;;;;;;5043096;28;20476;-83
2024/02/01 01:38:12;;;;;;;11.13;8.23;;;9.10;99.90;;;;;;5059816;28;20024;-83
2024/02/01 01:40:38;;;;;;;10.18;7.90;;;9.10;99.90;;;;;;5076243;28;20020;-83
2024/02/01 01:43:03;;;;;;;14.18;8.43;;;9.10;99.90;;;;;;5043224;28;20056;-83
2024/02/01 01:45:29;;;;;;;9.38;6.80;;;9.10;99.90;;;;;;5076383;28;20138;-83
2024/02/01 01:47:55;;;;;;;9.50;7.68;;;9.10;99.90;;;;;;5059799;28;20436;-83
2024/02/01 01:50:21;;;;;;;9.32;7.47;;;9.10;99.90;;;;;;5076321;28;20036;-84
2024/02/01 01:52:48;;;;;;;9.00;7.43;;;9.10;99.90;;;;;;5075677;28;20242;-83
2024/02/01 01:55:15;;;;;;;8.98;6.65;;;9.20;99.90;;;;;;5059787;28;20031;-84
2024/02/01 01:57:41;;;;;;;7.75;6.53;;;9.20;99.90;;;;;;5076218;28;20059;-83
2024/02/01 02:00:08;;;;;;;7.70;6.97;;;9.20;99.90;;;;;;5094183;28;20032;-83
2024/02/01 02:02:35;;;;;;;10.65;7.03;;;9.20;99.90;;;;;;5076060;28;20024;-83
2024/02/01 02:05:01;;;;;;;9.98;6.95;;;9.20;99.90;;;;;;5079742;28;20384;-82
2024/02/01 02:07:30;;;;;;;7.65;6.18;;;9.20;99.90;;;;;;5060856;28;20105;-82
2024/02/01 02:10:00;;;;;;;8.30;6.90;;;9.30;99.90;;;;;;5086424;28;20087;-81
2024/02/01 02:12:29;;;;;;;9.32;7.28;;;9.30;99.90;;;;;;5067178;28;20096;-81
2024/02/01 02:15:01;;;;;;;10.75;8.63;;;9.40;99.90;;;;;;5082322;28;20070;-82
2024/02/01 02:17:27;;;;;;;10.63;7.95;;;9.40;99.90;;;;;;5098526;28;20111;-82
2024/02/01 02:20:03;;;;;;;7.63;6.85;;;9.40;99.90;;;;;;5080088;28;20541;-82
2024/02/01 02:22:29;;;;;;;8.75;7.57;;;9.40;99.90;;;;;;5094524;28;20058;-82
2024/02/01 02:24:56;;;;;;;9.85;8.00;;;9.40;99.90;;;;;;5052651;28;20027;-82
2024/02/01 02:27:25;;;;;;;8.80;7.38;;;9.40;99.90;;;;;;5059976;28;20031;-82
2024/02/01 02:29:51;;;;;;;8.02;7.15;;;9.50;99.90;;;;;;5059467;28;20032;-83
2024/02/01 02:32:19;;;;;;;8.20;7.22;;;9.40;99.90;;;;;;5076078;28;20032;-83
2024/02/01 02:34:44;;;;;;;9.07;7.28;;;9.40;99.90;;;;;;5059898;28;20043;-82
2024/02/01 02:37:10;;;;;;;9.07;6.97;;;9.50;99.90;;;;;;5059685;28;20032;-83
2024/02/01 02:39:37;;;;;;;8.77;6.72;;;9.50;99.90;;;;;;5042922;28;20036;-82
2024/02/01 02:42:05;;;;;;;10.05;7.00;;;9.50;99.90;;;;;;5076432;28;20073;-82
2024/02/01 02:44:31;;;;;;;8.82;7.30;;;9.50;99.90;;;;;;5059591;28;20463;-83
2024/02/01 02:46:57;;;;;;;8.10;7.30;;;9.50;99.90;;;;;;5076203;28;20031;-83
2024/02/01 02:49:25;;;;;;;9.60;6.18;;;9.50;99.90;;;;;;5058755;28;20032;-82
2024/02/01 02:51:52;;;;;;;9.85;6.85;;;9.60;99.90;;;;;;5075875;28;20028;-82
2024/02/01 02:54:17;;;;;;;9.30;7.38;;;9.60;99.90;;;;;;5076185;28;20380;-83
2024/02/01 02:56:43;;;;;;;10.00;7.20;;;9.60;99.90;;;;;;5075806;28;20032;-83
2024/02/01 02:59:09;;;;;;;9.35;7.13;;;9.60;99.90;;;;;;5059079;28;20032;-82
2024/02/01 03:01:39;;;;;;;8.70;6.65;;;9.60;99.90;;;;;;5076276;28;20024;-83
2024/02/01 03:04:08;;;;;;;10.68;7.00;;;9.60;99.90;;;;;;5059910;28;20047;-83
2024/02/01 03:06:34;;;;;;;8.70;6.28;;;9.60;99.90;;;;;;5059855;28;20028;-83
2024/02/01 03:08:59;;;;;;;10.02;6.38;;;9.70;99.90;;;;;;5075990;28;20020;-83
2024/02/01 03:11:25;;;;;;;7.88;6.45;;;9.70;99.90;;;;;;5059439;28;20028;-82
2024/02/01 03:13:51;;;;;;;11.43;6.80;;;9.70;99.90;;;;;;5075921;28;20028;-82
2024/02/01 03:16:18;;;;;;;9.23;6.28;;;9.80;99.90;;;;;;5072253;28;20052;-83
2024/02/01 03:18:49;;;;;;;9.98;5.90;;;9.80;99.90;;;;;;5074128;28;20041;-83
2024/02/01 03:21:16;;;;;;;9.30;6.00;;;9.80;99.90;;;;;;5076505;28;20028;-83
2024/02/01 03:23:43;;;;;;;9.77;6.22;;;9.80;99.90;;;;;;5076244;28;20016;-83
2024/02/01 03:26:10;;;;;;;12.70;6.10;;;9.70;99.90;;;;;;5076600;28;20381;-82
2024/02/01 03:28:42;;;;;;;11.88;6.05;;;9.70;99.90;;;;;;5077676;28;20064;-82
2024/02/01 03:31:09;;;;;;;12.52;5.63;;;9.80;99.90;;;;;;5061258;28;20059;-83
2024/02/01 03:33:38;;;;;;;14.20;5.72;;;9.80;99.90;;;;;;5076675;28;20490;-83
2024/02/01 03:36:11;;;;;;;12.70;5.03;;;9.80;99.90;;;;;;5077010;28;20466;-83
2024/02/01 03:38:40;;;;;;;12.95;5.88;;;9.80;99.90;;;;;;5077197;28;20040;-83
2024/02/01 03:41:05;;;;;;;12.27;5.15;;;9.70;99.90;;;;;;5092506;28;20028;-82
2024/02/01 03:43:31;;;;;;;11.38;5.45;;;9.70;99.90;;;;;;5098902;28;20020;-82
2024/02/01 03:45:58;;;;;;;14.13;5.35;;;9.70;99.90;;;;;;5079523;28;20380;-81
2024/02/01 03:48:24;;;;;;;13.30;4.47;;;9.70;99.90;;;;;;5093946;28;20024;-82
2024/02/01 03:50:50;;;;;;;13.20;4.10;;;9.60;99.90;;;;;;5077358;28;20025;-82
2024/02/01 03:53:16;;;;;;;11.02;3.50;;;9.50;99.90;;;;;;5042542;28;20048;-82
2024/02/01 03:55:42;;;;;;;12.82;3.90;;;9.50;99.90;;;;;;5075564;28;20373;-80
2024/02/01 03:58:08;;;;;;;12.80;3.70;;;9.50;99.90;;;;;;5058753;28;20099;-82
2024/02/01 04:00:34;;;;;;;9.70;3.47;;;9.40;99.90;;;;;;5076570;28;20025;-82
2024/02/01 04:03:13;;;;;;;9.02;2.83;;;9.40;99.90;;;;;;5058839;28;20029;-82
2024/02/01 04:05:38;;;;;;;9.52;3.28;;;9.40;99.90;;;;;;5075217;28;20109;-82
2024/02/01 04:08:07;;;;;;;15.93;3.30;;;9.30;99.90;;;;;;5075611;28;20059;-83
2024/02/01 04:10:37;;;;;;;14.05;3.55;;;9.30;99.90;;;;;;5059321;28;20121;-83
2024/02/01 04:13:07;;;;;;;14.27;3.83;;;9.30;99.90;;;;;;5075474;28;20151;-81
2024/02/01 04:15:36;;;;;;;12.10;3.40;;;9.30;99.90;;;;;;5075409;28;20451;-82
2024/02/01 04:18:04;;;;;;;13.68;3.58;;;9.30;99.90;;;;;;5075117;28;20476;-82
2024/02/01 04:20:40;;;;;;;10.32;2.92;;;9.30;99.90;;;;;;5058482;28;20039;-81
2024/02/01 04:23:05;;;;;;;10.07;2.67;;;9.30;99.90;;;;;;5042666;28;20040;-82
2024/02/01 04:25:31;;;;;;;12.52;3.38;;;9.30;99.90;;;;;;5076761;28;20024;-81
2024/02/01 04:27:56;;;;;;;15.27;3.00;;;9.20;99.90;;;;;;5076789;28;20028;-80
2024/02/01 04:30:25;;;;;;;13.65;3.83;;;9.20;99.90;;;;;;5058778;28;20050;-81
2024/02/01 04:32:51;;;;;;;14.60;3.00;;;9.10;99.90;;;;;;5075229;28;20131;-81
2024/02/01 04:35:17;;;;;;;17.55;3.25;;;9.00;99.90;;;;;;5075203;28;20033;-81
2024/02/01 04:37:43;;;;;;;10.70;2.97;;;8.90;99.90;;;;;;5075392;28;20020;-82
2024/02/01 04:40:11;;;;;;;12.27;2.45;;;8.90;99.90;;;;;;5058248;28;20036;-81
2024/02/01 04:42:40;;;;;;;15.40;3.33;;;8.80;99.90;;;;;;5058586;28;20043;-81
2024/02/01 04:45:08;;;;;;;15.85;3.00;;;8.70;99.90;;;;;;5076586;28;20029;-82
2024/02/01 04:47:35;;;;;;;9.68;2.20;;;8.60;99.90;;;;;;5058699;28;20033;-81
2024/02/01 04:50:01;;;;;;;13.02;2.90;;;8.60;99.90;;;;;;5058296;28;20036;-81
2024/02/01 04:52:29;;;;;;;12.90;2.80;;;8.50;99.90;;;;;;5058059;28;20369;-81
2024/02/01 04:54:54;;;;;;;17.30;3.70;;;8.40;99.90;;;;;;5056668;28;20116;-81
2024/02/01 04:57:20;;;;;;;13.32;2.95;;;8.30;99.90;;;;;;5057813;28;20063;-81
2024/02/01 04:59:47;;;;;;;9.82;2.72;;;8.20;99.90;;;;;;5058221;28;20047;-81
2024/02/01 05:02:16;;;;;;;15.60;3.08;;;8.20;99.90;;;;;;5075077;28;20024;-81
2024/02/01 05:04:43;;;;;;;11.55;2.72;;;8.20;99.90;;;;;;5075977;28;20115;-82
2024/02/01 05:07:09;;;;;;;14.32;3.22;;;8.10;99.90;;;;;;5090026;28;20040;-81
2024/02/01 05:09:40;;;;;;;13.82;2.92;;;8.00;99.90;;;;;;5098284;28;20036;-82
2024/02/01 05:12:07;;;;;;;15.25;3.72;;;8.00;99.90;;;;;;5092184;28;20075;-80
2024/02/01 05:14:33;;;;;;;14.23;3.30;;;7.90;99.90;;;;;;5080263;28;20020;-81
2024/02/01 05:16:59;;;;;;;13.63;2.90;;;7.90;99.90;;;;;;5082730;28;20058;-81
2024/02/01 05:19:25;;;;;;;13.05;2.97;;;7.80;99.90;;;;;;5074294;28;20036;-81
2024/02/01 05:21:55;;;;;;;11.05;2.97;;;7.80;99.90;;;;;;5040658;28;20028;-80
2024/02/01 05:24:25;;;;;;;19.15;3.75;;;7.70;99.90;;;;;;5057825;28;20029;-81
2024/02/01 05:26:52;;;;;;;12.38;2.75;;;7.70;99.90;;;;;;5074022;28;20383;-81
2024/02/01 05:29:22;;;;;;;14.50;3.58;;;7.70;99.90;;;;;;5073672;28;20063;-81
2024/02/01 05:31:53;;;;;;;12.02;2.80;;;7.70;99.90;;;;;;5040574;28;20024;-81
2024/02/01 05:34:20;;;;;;;11.43;2.58;;;7.60;99.90;;;;;;5073385;28;20078;-80
2024/02/01 05:36:47;;;;;;;14.25;2.85;;;7.60;99.90;;;;;;5056970;28;20106;-84
2024/02/01 05:39:26;;;;;;;13.15;3.05;;;7.60;99.90;;;;;;5074994;28;20040;-84
2024/02/01 05:41:56;;;;;;;12.70;2.75;;;7.60;99.90;;;;;;5073057;28;20120;-83
2024/02/01 05:44:23;;;;;;;12.05;3.25;;;7.50;99.90;;;;;;5073569;28;20487;-82
2024/02/01 05:46:54;;;;;;;14.57;3.10;;;7.50;99.90;;;;;;5073524;28;20551;-81
2024/02/01 05:49:25;;;;;;;18.10;3.10;;;7.50;99.90;;;;;;5073773;28;20037;-82
2024/02/01 05:51:52;;;;;;;12.25;2.97;;;7.40;99.90;;;;;;5073516;28;20036;-82
2024/02/01 05:54:22;;;;;;;14.57;3.20;;;7.30;99.90;;;;;;5073046;28;20028;-81
2024/02/01 05:56:48;;;;;;;9.52;2.38;;;7.30;99.90;;;;;;5073244;28;20028;-81
2024/02/01 05:59:16;;;;;;;10.00;2.42;;;7.20;99.90;;;;;;5073208;28;20043;-81
2024/02/01 06:01:45;;;;;;;8.85;2.65;;;7.20;99.90;;;;;;5074286;28;20020;-81
2024/02/01 06:04:12;;;;;;;12.85;3.10;;;7.10;99.90;;;;;;5073343;28;20102;-82
2024/02/01 06:06:42;;;;;;;16.80;2.88;;;7.00;99.90;;;;;;5072891;28;20423;-81
2024/02/01 06:09:11;;;;;;;6.97;2.08;;;7.00;99.90;;;;;;5074737;28;20032;-81
2024/02/01 06:11:49;;;;;;;11.80;2.55;;;6.90;99.90;;;;;;5040967;28;20052;-82
2024/02/01 06:14:14;;;;;;;13.55;2.95;;;6.80;99.90;;;;;;5072783;28;20027;-83
2024/02/01 06:16:44;;;;;;;11.73;2.55;;;6.80;99.90;;;;;;5072674;28;20119;-82
2024/02/01 06:19:10;;;;;;;10.23;2.78;;;6.70;99.90;;;;;;5074086;28;20032;-83
2024/02/01 06:21:36;;;;;;;9.15;2.60;;;6.70;99.90;;;;;;5056445;28;20070;-84
2024/02/01 06:24:02;;;;;;;12.75;2.42;;;6.60;99.90;;;;;;5056506;28;20078;-83
2024/02/01 06:26:28;;;;;;;12.20;2.53;;;6.60;99.90;;;;;;5072807;28;20029;-83
2024/02/01 06:28:56;;;;;;;9.15;2.55;;;6.50;99.90;;;;;;5056646;28;20461;-83
2024/02/01 06:31:25;;;;;;;8.23;2.50;;;6.50;99.90;;;;;;5074981;28;20475;-80
2024/02/01 06:34:28;;;;;;;7.93;2.22;;;6.40;99.90;;;;;;5079303;28;20033;-82
2024/02/01 06:36:58;;;;;;;9.23;2.22;;;6.40;99.90;;;;;;5079491;28;20020;-83
2024/02/01 06:45:28;;;;;;;10.73;2.60;;;6.20;99.90;;;;;;5012500;28;20034;-82
2024/02/01 06:48:04;;;;;;;7.75;2.50;;;6.10;99.90;;;;;;5073919;28;20040;-83
2024/02/01 06:53:37;;;;;;;12.00;2.88;;;6.00;99.90;;;;;;5030335;28;20039;-83
2024/02/01 06:56:28;;;;;;;14.82;3.30;;;6.00;99.90;;;;;;5045771;28;20029;-83
2024/02/01 06:59:11;;;;;;;10.65;3.35;;;6.00;99.90;;;;;;5063894;28;20046;-83
2024/02/01 07:02:02;;;;;;;11.25;2.38;;;6.00;99.90;;;;;;5077057;28;20103;-83
2024/02/01 07:04:41;;;;;;;14.10;4.38;;;5.90;99.90;;;;;;5077145;28;20127;-83
2024/02/01 07:07:18;;;;;;;10.13;2.33;;;5.90;99.90;;;;;;5062282;28;20454;-82
2024/02/01 07:09:57;;;;;;;15.13;2.70;;;5.80;99.90;;;;;;5077000;28;20032;-83
2024/02/01 07:12:41;;;;;;;14.55;2.72;;;5.80;99.90;;;;;;5062173;28;20025;-83
2024/02/01 07:15:48;;;;;;;13.77;3.22;;;5.80;99.90;;;;;;5063323;28;20119;-83
2024/02/01 07:18:06;;;;;;;12.95;3.10;;;5.80;99.90;;;;;;5076564;28;20057;-83
2024/02/01 07:20:35;;;;;;;9.73;2.63;;;5.80;99.90;;;;;;5047839;28;20124;-83
2024/02/01 07:23:33;;;;;;;12.73;2.80;;;5.70;99.90;;;;;;5048160;28;20054;-83
2024/02/01 07:26:02;;;;;;;14.65;2.70;;;5.70;99.90;;;;;;5078116;28;20039;-83
2024/02/01 07:58:38;;;;;;;16.42;3.20;;;5.70;99.90;;;;;;5100683;28;20054;-82
2024/02/01 08:01:14;;;;;;;11.02;3.00;;;5.70;99.90;;;;;;5082477;28;20099;-82
2024/02/01 08:07:43;;;;;;;14.10;3.33;;;5.70;99.90;;;;;;5094384;28;20024;-82
2024/02/01 08:09:13;;;;;;;13.77;3.00;;;5.70;99.90;;;;;;5064686;28;20039;-82
2024/02/01 08:11:43;;;;;;;14.23;3.42;;;5.70;99.90;;;;;;5079629;28;20020;-82
2024/02/01 08:14:10;;;;;;;9.18;2.78;;;5.70;99.90;;;;;;5079341;28;20032;-82
2024/02/01 08:16:39;;;;;;;15.93;3.53;;;5.70;99.90;;;;;;5088505;28;20044;-82
2024/02/01 08:19:08;;;;;;;16.98;3.63;;;5.70;99.90;;;;;;5081812;28;20482;-82
2024/02/01 08:21:38;;;;;;;13.25;4.07;;;5.70;99.90;;;;;;5079475;28;20056;-82
2024/02/01 08:24:09;;;;;;;14.63;4.03;;;5.80;99.90;;;;;;5062724;28;20081;-82
2024/02/01 08:26:39;;;;;;;13.35;3.88;;;5.80;99.90;;;;;;5062481;28;20024;-83
2024/02/01 08:29:06;;;;;;;13.60;4.22;;;5.80;99.90;;;;;;5078634;28;20073;-83
2024/02/01 08:31:36;;;;;;;17.55;4.43;;;5.80;99.90;;;;;;5096396;28;20518;-82
2024/02/01 08:34:03;;;;;;;17.85;4.35;;;5.90;99.90;;;;;;5078346;28;20066;-83
2024/02/01 08:36:29;;;;;;;17.55;4.97;;;5.90;99.90;;;;;;5078458;28;20056;-83
2024/02/01 08:38:54;;;;;;;14.27;4.60;;;5.90;99.90;;;;;;5061790;28;20060;-84
2024/02/01 08:41:21;;;;;;;16.25;4.93;;;6.00;99.90;;;;;;5078833;28;20035;-83
2024/02/01 08:43:47;;;;;;;15.43;4.90;;;6.00;99.90;;;;;;5061841;28;20032;-83
2024/02/01 08:46:12;;;;;;;15.82;5.38;;;6.00;99.90;;;;;;5078684;28;20032;-83
2024/02/01 08:48:39;;;;;;;22.25;5.30;;;6.10;99.90;;;;;;5078105;28;20108;-84
2024/02/01 08:51:05;;;;;;;19.67;5.00;;;6.10;99.90;;;;;;5045278;28;20046;-83
2024/02/01 08:53:31;;;;;;;15.93;4.47;;;6.20;99.90;;;;;;5061572;28;20032;-83
2024/02/01 08:55:57;;;;;;;15.90;5.25;;;6.20;99.90;;;;;;5078614;28;20020;-83
2024/02/01 08:58:27;;;;;;;18.10;4.82;;;6.20;99.90;;;;;;5045833;28;20032;-84
2024/02/01 09:00:53;;;;;;;20.55;4.88;;;6.30;99.90;;;;;;5062943;28;20028;-85
2024/02/01 09:03:29;;;;;;;24.77;6.45;;;6.30;99.90;;;;;;5079238;28;20074;-83
2024/02/01 09:05:56;;;;;;;20.27;5.35;;;6.30;99.90;;;;;;5079571;28;20494;-83
2024/02/01 09:08:35;;;;;;;18.65;6.63;;;6.30;99.90;;;;;;5062172;28;20024;-84
2024/02/01 09:11:17;;;;;;;22.15;5.53;;;6.40;99.90;;;;;;5078649;28;20349;-84
2024/02/01 09:13:45;;;;;;;16.80;5.88;;;6.40;99.90;;;;;;5064806;28;20411;-90
2024/02/01 09:16:21;;;;;;;17.15;5.05;;;6.50;99.90;;;;;;5079519;28;20052;-89
2024/02/01 09:18:47;;;;;;;16.00;5.22;;;6.50;99.90;;;;;;5088669;28;20024;-91
2024/02/01 09:21:13;;;;;;;22.35;5.85;;;6.50;99.90;;;;;;5085220;28;20043;-84
2024/02/01 09:23:40;;;;;;;15.93;4.63;;;6.60;99.90;;;;;;5082282;28;20020;-85
2024/02/01 09:26:08;;;;;;;18.75;5.35;;;6.70;99.90;;;;;;5079355;28;20013;-83
2024/02/01 09:28:34;;;;;;;15.68;4.97;;;6.70;99.90;;;;;;5079662;28;20024;-83
2024/02/01 09:31:00;;;;;;;14.35;3.95;;;6.70;99.90;;;;;;5077429;28;20058;-84
2024/02/01 09:33:31;;;;;;;16.10;4.05;;;6.70;99.90;;;;;;5077227;28;20028;-83
2024/02/01 09:35:56;;;;;;;17.40;4.60;;;6.80;99.90;;;;;;5095520;28;20107;-84
2024/02/01 09:38:23;;;;;;;18.20;4.63;;;6.80;99.90;;;;;;5060506;28;20052;-83
2024/02/01 09:40:49;;;;;;;17.63;3.92;;;6.80;99.90;;;;;;5077193;28;20012;-84
2024/02/01 09:43:22;;;;;;;16.38;3.58;;;6.90;99.90;;;;;;5076993;28;20096;-83
2024/02/01 09:45:56;;;;;;;13.77;3.65;;;7.00;99.90;;;;;;5076873;28;20016;-83
2024/02/01 09:48:21;;;;;;;16.70;3.67;;;7.00;99.90;;;;;;5076944;28;20024;-83
2024/02/01 09:50:52;;;;;;;19.60;4.18;;;7.00;99.90;;;;;;5095036;28;20032;-83
2024/02/01 09:53:28;;;;;;;13.93;3.30;;;7.10;99.90;;;;;;5076899;28;20028;-84
2024/02/01 09:55:58;;;;;;;17.40;3.55;;;7.10;99.90;;;;;;5076853;28;20028;-84
2024/02/01 09:58:26;;;;;;;12.23;3.70;;;7.20;99.90;;;;;;5076664;28;20032;-83
2024/02/01 10:00:53;;;;;;;17.98;4.13;;;7.30;99.90;;;;;;5076687;28;20378;-84
2024/02/01 10:03:27;;;;;;;17.73;3.88;;;7.30;99.90;;;;;;5059673;28;20024;-83
2024/02/01 10:05:56;;;;;;;16.33;3.65;;;7.30;99.90;;;;;;5045698;28;20032;-84
2024/02/01 10:08:25;;;;;;;16.50;3.72;;;7.40;99.90;;;;;;5076683;28;20517;-83
2024/02/01 10:10:51;;;;;;;17.88;3.53;;;7.40;99.90;;;;;;5044424;28;20383;-84
2024/02/01 10:13:18;;;;;;;11.73;3.28;;;7.40;99.90;;;;;;5043401;28;20031;-84
2024/02/01 10:15:49;;;;;;;16.58;3.22;;;7.50;99.90;;;;;;5059629;28;20340;-83
2024/02/01 10:18:20;;;;;;;16.02;3.80;;;7.60;99.90;;;;;;5076957;28;20115;-84
2024/02/01 10:21:21;;;;;;;15.50;3.95;;;7.60;99.90;;;;;;5076706;28;20036;-83
2024/02/01 10:23:46;;;;;;;15.77;3.50;;;7.70;99.90;;;;;;5080729;28;20032;-84
2024/02/01 10:26:24;;;;;;;15.48;3.35;;;7.70;99.90;;;;;;5059637;28;20031;-84
2024/02/01 10:28:51;;;;;;;18.95;3.88;;;7.70;99.90;;;;;;5076386;28;20031;-83
2024/02/01 10:31:19;;;;;;;14.68;3.70;;;7.80;99.90;;;;;;5043407;28;20063;-84
2024/02/01 10:33:47;;;;;;;19.25;4.40;;;7.90;99.90;;;;;;5059592;28;20028;-83
2024/02/01 10:36:28;;;;;;;21.02;4.50;;;7.90;99.90;;;;;;5076385;28;20031;-83
2024/02/01 10:38:58;;;;;;;19.45;5.00;;;8.00;99.90;;;;;;5076949;28;20047;-84
2024/02/01 10:41:35;;;;;;;21.87;4.07;;;8.00;99.90;;;;;;5062649;28;20028;-84
2024/02/01 10:44:04;;;;;;;22.40;4.55;;;8.00;99.90;;;;;;5092850;28;20080;-83
2024/02/01 10:46:42;;;;;;;17.10;4.05;;;8.10;99.90;;;;;;5083877;28;20015;-83
2024/02/01 10:49:21;;;;;;;21.10;4.25;;;8.10;99.90;;;;;;5080740;28;20032;-83
2024/02/01 10:51:49;;;;;;;17.13;3.60;;;8.10;99.90;;;;;;5078398;28;20286;-83
2024/02/01 10:54:18;;;;;;;15.15;3.45;;;8.20;99.90;;;;;;5061530;28;20138;-83
2024/02/01 10:56:44;;;;;;;19.40;4.32;;;8.20;99.90;;;;;;5060175;28;20058;-83
2024/02/01 10:59:11;;;;;;;19.45;4.18;;;8.30;99.90;;;;;;5059760;28;20028;-83
2024/02/01 11:01:38;;;;;;;19.27;4.40;;;8.30;99.90;;;;;;5094787;28;20024;-83
2024/02/01 11:04:08;;;;;;;17.55;3.83;;;8.30;99.90;;;;;;5076108;28;20031;-84
2024/02/01 11:06:36;;;;;;;18.45;4.75;;;8.40;99.90;;;;;;5076166;28;20028;-83
2024/02/01 11:09:18;;;;;;;19.60;4.07;;;8.40;99.90;;;;;;5059332;28;20032;-84
2024/02/01 11:11:55;;;;;;;30.15;5.72;;;8.40;99.90;;;;;;5061478;28;20036;-83
2024/02/01 11:14:28;;;;;;;21.13;4.25;;;8.50;99.90;;;;;;5075861;28;20024;-83
2024/02/01 11:17:03;;;;;;;17.50;4.03;;;8.50;99.90;;;;;;5059289;28;20090;-84
2024/02/01 11:19:32;;;;;;;16.58;3.92;;;8.50;99.90;;;;;;5075965;28;20028;-84
2024/02/01 11:22:01;;;;;;;17.80;4.25;;;8.50;99.90;;;;;;5058943;28;20392;-84
2024/02/01 11:24:35;;;;;;;18.77;4.95;;;8.50;99.90;;;;;;5093783;28;20377;-84
2024/02/01 11:27:17;;;;;;;16.42;4.40;;;8.50;99.90;;;;;;5060281;28;20059;-84
2024/02/01 11:29:55;;;;;;;17.73;4.03;;;8.60;99.90;;;;;;5075960;28;20073;-84
2024/02/01 11:32:22;;;;;;;17.08;5.03;;;8.70;99.90;;;;;;5075832;28;20394;-83
2024/02/01 11:34:52;;;;;;;21.75;4.88;;;8.70;99.90;;;;;;5075983;28;20059;-84
2024/02/01 11:37:25;;;;;;;19.95;4.90;;;8.70;99.90;;;;;;5059390;28;20032;-83
2024/02/01 11:39:53;;;;;;;15.95;4.10;;;8.80;99.90;;;;;;5078078;28;20456;-83
2024/02/01 11:42:24;;;;;;;13.60;4.10;;;8.80;99.90;;;;;;5063591;28;20055;-83
2024/02/01 11:44:50;;;;;;;18.70;4.90;;;8.90;99.90;;;;;;5082849;28;20081;-83
2024/02/01 11:47:18;;;;;;;12.80;3.70;;;9.00;99.90;;;;;;5098118;28;20455;-83
2024/02/01 11:49:49;;;;;;;19.88;4.47;;;9.00;99.90;;;;;;5080794;28;20070;-84
2024/02/01 11:52:43;;;;;;;22.52;5.07;;;9.00;99.90;;;;;;5063923;28;20028;-83
2024/02/01 11:55:10;;;;;;;15.10;3.85;;;9.00;99.90;;;;;;5080283;28;20016;-84
2024/02/01 11:57:57;;;;;;;17.02;3.88;;;9.00;99.90;;;;;;5063173;28;20020;-83
2024/02/01 12:00:23;;;;;;;16.25;4.22;;;9.10;99.90;;;;;;5080505;28;20039;-83
2024/02/01 12:02:49;;;;;;;19.98;4.20;;;9.10;99.90;;;;;;5080039;28;20047;-84
2024/02/01 12:05:23;;;;;;;17.95;4.18;;;9.10;99.90;;;;;;5098714;28;20464;-83
2024/02/01 12:07:49;;;;;;;17.88;4.55;;;9.10;99.90;;;;;;5081595;28;20028;-84
2024/02/01 12:10:17;;;;;;;21.23;4.40;;;9.10;99.90;;;;;;5084268;28;20483;-84
2024/02/01 12:12:47;;;;;;;19.75;4.35;;;9.20;99.90;;;;;;5100802;28;20030;-83
2024/02/01 12:15:14;;;;;;;18.88;4.00;;;9.20;99.90;;;;;;5081799;28;20041;-83
2024/02/01 12:17:50;;;;;;;16.65;4.13;;;9.30;99.90;;;;;;5108005;28;20044;-83
2024/02/01 12:20:17;;;;;;;17.85;3.92;;;9.30;99.90;;;;;;5082700;28;20033;-84
2024/02/01 12:22:48;;;;;;;20.88;4.65;;;9.30;99.90;;;;;;5079297;28;20024;-84
2024/02/01 12:25:20;;;;;;;16.63;4.25;;;9.30;99.90;;;;;;5080080;28;20112;-84
2024/02/01 12:27:46;;;;;;;17.38;4.05;;;9.30;99.90;;;;;;5080719;28;20058;-83
2024/02/01 12:30:15;;;;;;;18.55;4.10;;;9.40;99.90;;;;;;5063267;28;20028;-84
2024/02/01 12:32:44;;;;;;;16.52;4.38;;;9.40;99.90;;;;;;5063004;28;20028;-84
2024/02/01 12:35:14;;;;;;;18.77;4.03;;;9.50;99.90;;;;;;5078552;28;20031;-84
2024/02/01 12:37:42;;;;;;;15.68;4.10;;;9.50;99.90;;;;;;5078224;28;20417;-83
2024/02/01 12:40:13;;;;;;;17.88;4.35;;;9.50;99.90;;;;;;5078186;28;20028;-84
2024/02/01 12:42:42;;;;;;;24.13;5.32;;;9.50;99.90;;;;;;5078025;28;20051;-83
2024/02/01 12:45:19;;;;;;;14.30;3.72;;;9.60;99.90;;;;;;5062008;28;20024;-84
2024/02/01 12:47:51;;;;;;;15.95;4.05;;;9.60;99.90;;;;;;5078059;28;20020;-83
2024/02/01 12:50:18;;;;;;;19.77;4.47;;;9.60;99.90;;;;;;5062282;28;20514;-83
2024/02/01 12:52:45;;;;;;;16.17;3.72;;;9.60;99.90;;;;;;5061711;28;20464;-83
2024/02/01 12:55:11;;;;;;;17.02;3.78;;;9.60;99.90;;;;;;5044951;28;20032;-84
2024/02/01 12:57:43;;;;;;;15.55;4.30;;;9.70;99.90;;;;;;5078079;28;20024;-84
2024/02/01 13:00:12;;;;;;;19.65;3.75;;;9.70;99.90;;;;;;5061637;28;20032;-84
2024/02/01 13:02:42;;;;;;;18.60;4.40;;;9.80;99.90;;;;;;5077941;28;20113;-84
2024/02/01 13:05:09;;;;;;;20.48;4.82;;;9.90;99.90;;;;;;5078261;28;20020;-83
2024/02/01 13:07:35;;;;;;;18.45;3.42;;;9.90;99.90;;;;;;5097208;28;20020;-85
2024/02/01 13:10:05;;;;;;;15.18;3.70;;;9.90;99.90;;;;;;5045082;28;20032;-84
2024/02/01 13:12:35;;;;;;;16.25;3.85;;;9.90;99.90;;;;;;5062224;28;20051;-84
2024/02/01 13:15:01;;;;;;;21.38;4.15;;;10.00;99.90;;;;;;5078021;28;20107;-84
2024/02/01 13:17:28;;;;;;;16.15;4.05;;;10.00;99.90;;;;;;5060988;28;20105;-83
2024/02/01 13:19:55;;;;;;;20.95;4.40;;;10.00;99.90;;;;;;5095444;28;20040;-84
2024/02/01 13:22:22;;;;;;;19.90;4.28;;;10.00;99.90;;;;;;5077929;28;20051;-84
2024/02/01 13:24:47;;;;;;;17.13;3.83;;;10.00;99.90;;;;;;5044414;28;20020;-84
2024/02/01 13:27:13;;;;;;;15.75;3.90;;;10.10;99.90;;;;;;5061881;28;20123;-84
2024/02/01 13:29:40;;;;;;;14.40;3.70;;;10.10;99.90;;;;;;5078136;28;20411;-84
2024/02/01 13:32:08;;;;;;;17.10;4.00;;;10.10;99.90;;;;;;5062938;28;20024;-84
2024/02/01 13:34:57;;;;;;;14.50;3.65;;;10.10;99.90;;;;;;5051268;28;20126;-84
2024/02/01 13:37:23;;;;;;;15.93;4.15;;;10.10;99.90;;;;;;5055739;28;20465;-84
2024/02/01 13:39:48;;;;;;;14.38;3.40;;;10.10;99.90;;;;;;5051121;28;20043;-83